< < Back
Terminal Aerodrome Forecast


Current Version              Previous Versions:   1  2  3  4  5  6  7  8  9  

Terminal Aerodrome Forecast

278
FTUS44 KMOB 291120
TAFPNS
TAF
KPNS 291120Z 2912/3012 06005KT P6SM FEW090 SCT250
     FM291700 16010KT P6SM SCT035 SCT250
     FM300600 15005KT P6SM SCT060=

Latest METAR

872
SAUS70 KWBC 300900 RRL
MTRPNS
METAR KPNS 300853Z AUTO 09005KT 10SM BKN006 OVC010 24/22 A2987 RMK AO2
CIG 004V009 SLP116 T02390222 55012


USA.gov is the U.S. government's official web portal to all federal, state and local government web resources and services.